createdAt,value
2023-04-26T00:26:57.533Z,0.86
2023-04-26T00:32:07.501Z,0.58
2023-04-26T00:37:23.508Z,0.59
2023-04-26T00:42:39.602Z,0.65
2023-04-26T00:47:56.668Z,0.78
2023-04-26T00:53:11.591Z,0.64
2023-04-26T00:58:28.189Z,0.77
2023-04-26T01:03:46.105Z,0.56
2023-04-26T01:09:02.352Z,0.87
2023-04-26T01:14:19.090Z,0.87
2023-04-26T01:19:36.966Z,0.85
2023-04-26T01:24:54.017Z,0.61
2023-04-26T01:30:13.438Z,0.66
2023-04-26T01:35:29.540Z,0.83
2023-04-26T01:40:46.174Z,0.63
2023-04-26T01:46:02.513Z,0.69
2023-04-26T01:51:18.740Z,0.87
2023-04-26T01:56:34.185Z,0.65
2023-04-26T02:01:50.458Z,1.2
2023-04-26T02:07:07.184Z,1.02
2023-04-26T02:12:23.036Z,0.78
2023-04-26T02:17:40.744Z,0.98
2023-04-26T02:22:56.489Z,0.85
2023-04-26T02:28:12.308Z,1.04
2023-04-26T02:33:30.538Z,0.78
2023-04-26T02:38:47.169Z,0.72
2023-04-26T02:44:04.493Z,0.96
2023-04-26T02:49:19.822Z,0.95
2023-04-26T02:54:35.804Z,1.47
2023-04-26T02:59:52.018Z,0.78
2023-04-26T03:05:08.029Z,0.76
2023-04-26T03:10:28.307Z,1.04
2023-04-26T03:14:42.110Z,0.81
2023-04-26T03:20:03.195Z,0.89
2023-04-26T03:25:17.011Z,1.06
2023-04-26T03:30:33.188Z,0.98
2023-04-26T03:35:50.128Z,1.04
2023-04-26T03:41:06.224Z,0.76
2023-04-26T03:46:23.368Z,1.65
2023-04-26T03:51:39.126Z,0.95
2023-04-26T03:56:55.026Z,0.76
2023-04-26T04:02:13.212Z,1.18
2023-04-26T04:07:30.785Z,1.41
2023-04-26T04:44:35.451Z,1.13
2023-04-26T04:49:45.090Z,1.56
2023-04-26T04:55:02.175Z,1.33
2023-04-26T05:00:19.404Z,1.6
2023-04-26T05:05:37.080Z,1.24
2023-04-26T05:10:53.152Z,1.94
2023-04-26T05:16:09.793Z,1.34
2023-04-26T05:21:24.448Z,1.73
2023-04-26T05:26:40.448Z,1.66
2023-04-26T05:31:56.390Z,1.79
2023-04-26T05:37:12.228Z,1.94
2023-04-26T05:42:27.842Z,1.99
2023-04-26T05:47:44.875Z,1.67
2023-04-26T05:53:01.092Z,1.74
2023-04-26T05:58:18.493Z,1.93
2023-04-26T06:03:37.158Z,1.4
2023-04-26T06:08:52.068Z,1.2
2023-04-26T06:14:31.295Z,1.61
2023-04-26T06:19:25.059Z,1.4
2023-04-26T06:24:41.311Z,1.4
2023-04-26T06:29:57.089Z,1.28
2023-04-26T06:35:13.931Z,1.89
2023-04-26T06:40:30.906Z,1.36
2023-04-26T06:45:47.518Z,1.3
2023-04-26T06:51:04.551Z,1.48
2023-04-26T06:56:20.594Z,1.33
2023-04-26T07:01:38.204Z,1
2023-04-26T07:06:54.658Z,1.38
2023-04-26T07:12:10.448Z,1.09
2023-04-26T07:17:28.443Z,1.2
2023-04-26T07:22:44.628Z,1.31
2023-04-26T07:28:01.595Z,0.99
2023-04-26T07:33:36.880Z,0.66
2023-04-26T08:15:57.079Z,0.45
2023-04-26T08:21:06.983Z,0.83
2023-04-26T08:26:23.018Z,0.51
2023-04-26T08:31:39.855Z,0.67
2023-04-26T08:36:56.872Z,0.7
2023-04-26T08:42:14.639Z,0.61
2023-04-26T08:47:31.914Z,0.6
2023-04-26T08:52:47.994Z,0.6
2023-04-26T08:58:05.297Z,0.96
2023-04-26T09:03:22.756Z,0.56
2023-04-26T09:08:38.719Z,0.75
2023-04-26T09:13:56.418Z,0.68
2023-04-26T09:19:11.461Z,0.61
2023-04-26T09:24:27.881Z,0.58
2023-04-26T09:29:44.573Z,0.67
2023-04-26T09:35:01.207Z,0.68
2023-04-26T09:40:17.389Z,0.86
2023-04-26T09:45:34.329Z,0.8
2023-04-26T09:50:50.479Z,0.75
2023-04-26T09:56:09.318Z,0.98
2023-04-26T10:01:27.309Z,0.81
2023-04-26T10:06:43.908Z,0.74
2023-04-26T10:12:00.704Z,0.51
2023-04-26T10:18:11.764Z,0.58
2023-04-26T10:22:34.280Z,0.59
2023-04-26T10:27:50.504Z,0.64
2023-04-26T10:33:07.834Z,0.66
2023-04-26T10:38:24.032Z,0.61
2023-04-26T10:43:40.824Z,0.86
2023-04-26T10:48:57.605Z,0.68
2023-04-26T10:54:13.944Z,0.8
2023-04-26T10:59:55.152Z,0.66
2023-04-26T11:04:45.918Z,1.13
2023-04-26T11:10:02.642Z,0.82
2023-04-26T11:15:18.989Z,0.94
2023-04-26T12:02:49.271Z,0.75
2023-04-26T12:07:57.596Z,0.63
2023-04-26T12:13:14.599Z,0.71
2023-04-26T12:18:31.540Z,0.66
2023-04-26T12:55:33.318Z,0.72
2023-04-26T13:00:46.000Z,1.84
2023-04-26T13:06:01.903Z,0.77
2023-04-26T13:11:17.409Z,0.78
2023-04-26T13:16:34.140Z,0.78
2023-04-26T13:21:50.214Z,0.88
2023-04-26T13:27:07.895Z,0.67
2023-04-26T13:32:25.291Z,0.7
2023-04-26T13:37:41.761Z,0.74
2023-04-26T13:42:58.883Z,0.75
2023-04-26T13:48:18.405Z,0.76
2023-04-26T13:53:32.831Z,0.84
2023-04-26T13:58:48.450Z,0.77
2023-04-26T14:04:07.982Z,0.68
2023-04-26T14:09:22.279Z,0.73
2023-04-26T14:14:39.706Z,0.73
2023-04-26T14:19:55.645Z,0.69
2023-04-26T14:25:11.809Z,0.71
2023-04-26T14:30:27.317Z,0.82
2023-04-26T14:35:42.850Z,0.85
2023-04-26T14:40:58.889Z,0.79
2023-04-26T14:46:16.247Z,0.74
2023-04-26T14:51:31.186Z,0.79
2023-04-26T14:56:47.560Z,0.81
2023-04-26T15:02:03.957Z,0.74
2023-04-26T15:07:33.404Z,0.73
2023-04-26T15:12:35.565Z,0.7
2023-04-26T15:17:51.818Z,0.76
2023-04-26T15:23:09.228Z,0.76
2023-04-26T15:28:27.033Z,0.75
2023-04-26T15:33:42.628Z,0.7
2023-04-26T15:38:59.264Z,0.71
2023-04-26T15:44:16.797Z,0.72
2023-04-26T15:49:32.964Z,0.74
2023-04-26T15:54:50.328Z,0.78
2023-04-26T16:00:06.102Z,0.78
2023-04-26T16:42:21.010Z,0.79
2023-04-26T16:47:38.120Z,0.75
2023-04-26T16:52:55.170Z,0.76
2023-04-26T16:58:11.764Z,0.7
2023-04-26T17:03:31.268Z,0.72
2023-04-26T17:08:47.276Z,0.76
2023-04-26T17:14:04.838Z,0.81
2023-04-26T17:19:21.791Z,0.77
2023-04-26T17:24:37.345Z,0.75
2023-04-26T17:29:54.259Z,0.76
2023-04-26T17:35:11.701Z,0.77
2023-04-26T17:40:28.651Z,0.82
2023-04-26T17:45:46.168Z,0.74
2023-04-26T17:51:02.447Z,0.74
2023-04-26T17:56:18.249Z,0.7
2023-04-26T18:01:35.772Z,0.85
2023-04-26T18:06:53.943Z,0.7
2023-04-26T18:12:11.056Z,0.67
2023-04-26T18:17:29.407Z,0.92
2023-04-26T18:22:44.675Z,0.72
2023-04-26T18:28:02.049Z,0.91
2023-04-26T18:33:20.189Z,0.69
2023-04-26T18:38:35.657Z,0.9
2023-04-26T18:43:52.629Z,0.68
2023-04-26T18:49:08.328Z,0.73
2023-04-26T18:54:25.425Z,0.71
2023-04-26T18:59:43.076Z,0.68
2023-04-26T19:05:00.247Z,0.68
2023-04-26T19:10:15.033Z,0.91
2023-04-26T19:15:30.910Z,1.01
2023-04-26T19:20:46.942Z,1.01
2023-04-26T19:26:04.658Z,0.89
2023-04-26T19:31:21.750Z,0.79
2023-04-26T19:36:37.816Z,0.75
2023-04-26T20:18:58.850Z,0.67
2023-04-26T20:24:08.552Z,0.8
2023-04-26T20:29:25.335Z,1.17
2023-04-26T20:34:42.454Z,0.64
2023-04-26T20:39:58.832Z,0.97
2023-04-26T20:45:18.143Z,0.82
2023-04-26T20:50:36.962Z,0.92
2023-04-26T20:55:51.919Z,0.95
2023-04-26T21:01:09.547Z,0.82
2023-04-26T21:06:24.893Z,0.76
2023-04-26T21:11:40.528Z,0.94
2023-04-26T21:16:56.951Z,0.92
2023-04-26T21:22:13.756Z,0.93
2023-04-26T21:27:30.223Z,1.01
2023-04-26T21:32:49.663Z,0.7
2023-04-26T21:38:04.814Z,0.82
2023-04-26T21:43:21.754Z,0.75
2023-04-26T21:48:37.871Z,0.85
2023-04-26T21:53:54.466Z,0.89
2023-04-26T21:59:13.218Z,1.01
2023-04-26T22:04:28.774Z,1
2023-04-26T22:09:44.328Z,0.96
2023-04-26T22:14:59.909Z,0.79
2023-04-26T22:20:15.998Z,0.8
2023-04-26T22:25:32.555Z,0.86
2023-04-26T22:30:49.622Z,0.76
2023-04-26T22:36:06.344Z,0.73
2023-04-26T22:41:22.063Z,1.06
2023-04-26T22:46:39.078Z,0.76
2023-04-26T22:52:32.726Z,0.75
2023-04-26T22:57:11.508Z,0.67
2023-04-26T23:02:29.591Z,0.89
2023-04-26T23:45:06.815Z,1.06
2023-04-26T23:50:16.436Z,0.94
2023-04-26T23:55:34.094Z,0.76
